Airfield :
LOGIN :

Register | Disclaimer

   EN    FR    IT 

 










Legend :    VFR   Marginal VFR   IFR   Intensive IFR   Very Intensive IFR
Visi :
Ceiling :
>= 8 km
>= 3000ft
5 to 8 km
1000 to 3000 ft
1500m to 5 km
500 to 1000 ft
800 to 1500m
200 to 500 ft
< 800m
< 200 ft
Symbols :   Thunderstorms  Fog  Heavy snow  Heavy precipitations  Wind > 20 kt
SIGMETs :     Misc.  Thunderstorms  Icing  Turbulence  Mountain Waves  Volcanic Ashes






- Airport Elevation : 274 ft
- IATA code : PUY


LDPL - Pula

CURRENT METAR :
  • 010800Z 16005KT 110V240 9999 FEW020 SCT042 27/21 Q1006 BECMG TL0830 24008KT

EXPIRED METARs :
  • 010730Z 14005KT 110V180 9999 FEW014 SCT042 27/22 Q1005 BECMG TL0830 24008KT
  • 010700Z VRB04KT 9999 FEW010 27/22 Q1005 BECMG TL0800 24008KT
  • 010630Z 14004KT 100V180 9999 FEW007 27/23 Q1005 BECMG TL0800 24008KT
  • 010600Z 14005KT 090V230 CAVOK 27/23 Q1005 NOSIG

TAF TAF LDPL
Valid from the 01 at 06:00 until the 02 at 06:00 UTC


010525Z 0106/0206 10008KT CAVOK TX31/0113Z TN22/0203Z
BECMG 0106/0108 24010KT
PROB30
TEMPO 0112/0118 28018G30KT TSRA FEW050CB
BECMG 0118/0120 30005KT



MET'MAP, your aeronautical weather chart ! - Copyright ORBIFLY December 2007 - Disclaimer

ORBIFLY MET'MAP TEAM :

Programming & Development : Alexandra Zaïnal
Concept & original design : Baudouin d'Aumeries
Assistance for programming : Marc-Olivier Méhu
Technical & hardware support : Manuel Goepfert

Contact : metmap@orbifly.com




SOURCES & CREDITS :

   NOAA